createdAt,value
2023-02-06T00:00:52.161Z,1.05
2023-02-06T00:03:20.188Z,1.08
2023-02-06T00:05:56.049Z,1.25
2023-02-06T00:08:22.892Z,0.85
2023-02-06T00:10:49.537Z,0.70
2023-02-06T00:13:16.077Z,0.90
2023-02-06T00:15:42.969Z,1.17
2023-02-06T00:18:09.603Z,1.17
2023-02-06T00:20:37.063Z,1.05
2023-02-06T00:23:04.272Z,1.23
2023-02-06T00:25:31.166Z,1.05
2023-02-06T00:27:57.765Z,0.90
2023-02-06T00:30:24.440Z,0.65
2023-02-06T00:32:51.351Z,1.40
2023-02-06T00:35:18.035Z,0.87
2023-02-06T00:37:44.594Z,1.30
2023-02-06T00:40:11.837Z,0.88
2023-02-06T00:42:38.534Z,0.57
2023-02-06T00:45:06.351Z,1.02
2023-02-06T00:47:33.060Z,1.17
2023-02-06T00:49:59.601Z,0.57
2023-02-06T00:52:26.233Z,1.08
2023-02-06T00:54:52.969Z,1.27
2023-02-06T00:57:19.570Z,1.05
2023-02-06T00:59:46.137Z,0.67
2023-02-06T01:02:12.647Z,0.90
2023-02-06T01:04:39.240Z,0.93
2023-02-06T01:07:05.783Z,1.10
2023-02-06T01:09:32.434Z,0.85
2023-02-06T01:11:59.048Z,1.20
2023-02-06T01:14:25.629Z,0.68
2023-02-06T01:16:52.245Z,1.23
2023-02-06T01:19:18.868Z,1.20
2023-02-06T01:21:45.427Z,1.08
2023-02-06T01:24:12.024Z,1.00
2023-02-06T01:26:38.755Z,0.70
2023-02-06T01:29:05.424Z,0.80
2023-02-06T01:31:32.426Z,0.90
2023-02-06T01:34:00.564Z,0.50
2023-02-06T01:36:27.759Z,1.33
2023-02-06T01:38:54.422Z,0.77
2023-02-06T01:41:22.972Z,1.00
2023-02-06T01:44:11.395Z,0.80
2023-02-06T01:46:39.749Z,1.33
2023-02-06T01:49:10.927Z,1.03
2023-02-06T01:51:38.387Z,0.63
2023-02-06T01:54:07.622Z,1.10
2023-02-06T01:56:40.370Z,0.82
2023-02-06T01:59:06.978Z,0.80
2023-02-06T02:01:33.903Z,0.70
2023-02-06T02:04:06.512Z,0.65
2023-02-06T02:06:33.691Z,0.63
2023-02-06T02:09:02.809Z,0.60
2023-02-06T02:11:37.987Z,0.95
2023-02-06T02:14:08.392Z,0.93
2023-02-06T02:17:03.357Z,1.02
2023-02-06T02:19:39.876Z,0.45
2023-02-06T02:22:18.389Z,0.30
2023-02-06T02:24:55.973Z,0.40
2023-02-06T02:27:57.524Z,0.90
2023-02-06T02:30:24.969Z,0.57
2023-02-06T02:32:55.508Z,0.85
2023-02-06T02:35:29.070Z,0.70
2023-02-06T02:38:03.636Z,1.00
2023-02-06T02:40:47.592Z,1.00
2023-02-06T02:43:28.906Z,0.30
2023-02-06T02:46:18.603Z,0.82
2023-02-06T02:48:49.084Z,1.45
2023-02-06T02:51:16.447Z,0.70
2023-02-06T02:53:43.123Z,0.93
2023-02-06T02:56:16.801Z,0.88
2023-02-06T02:58:46.136Z,0.52
2023-02-06T03:01:19.518Z,0.57
2023-02-06T03:03:48.210Z,1.17
2023-02-06T03:06:28.045Z,0.87
2023-02-06T03:09:03.023Z,0.50
2023-02-06T03:11:30.467Z,0.73
2023-02-06T03:14:06.151Z,0.63
2023-02-06T03:16:39.439Z,0.65
2023-02-06T03:19:14.076Z,0.60
2023-02-06T03:21:42.993Z,0.93
2023-02-06T03:24:16.945Z,1.52
2023-02-06T03:26:45.287Z,0.88
2023-02-06T03:29:15.429Z,0.75
2023-02-06T03:31:57.718Z,0.47
2023-02-06T03:34:35.169Z,0.63
2023-02-06T03:37:02.246Z,0.45
2023-02-06T03:39:29.176Z,0.52
2023-02-06T03:41:59.826Z,1.30
2023-02-06T03:44:30.618Z,0.47
2023-02-06T03:46:59.630Z,0.60
2023-02-06T03:49:29.698Z,1.00
2023-02-06T03:52:01.992Z,0.68
2023-02-06T03:54:30.115Z,0.35
2023-02-06T03:56:59.814Z,0.37
2023-02-06T03:59:26.740Z,0.40
2023-02-06T04:01:57.423Z,0.63
2023-02-06T04:04:29.369Z,0.52
2023-02-06T04:07:00.391Z,0.65
2023-02-06T04:09:27.013Z,1.00
2023-02-06T04:11:53.596Z,1.35
2023-02-06T04:14:20.218Z,1.10
2023-02-06T04:16:46.957Z,0.95
2023-02-06T04:19:13.521Z,1.25
2023-02-06T04:21:40.099Z,1.30
2023-02-06T04:24:06.743Z,0.60
2023-02-06T04:26:33.383Z,1.30
2023-02-06T04:29:00.001Z,0.70
2023-02-06T04:31:27.014Z,0.90
2023-02-06T04:33:53.630Z,1.00
2023-02-06T04:36:20.217Z,0.80
2023-02-06T04:38:46.761Z,0.60
2023-02-06T04:41:13.330Z,0.40
2023-02-06T04:43:39.909Z,0.52
2023-02-06T04:46:06.521Z,0.90
2023-02-06T04:48:33.175Z,0.93
2023-02-06T04:50:59.831Z,0.57
2023-02-06T04:53:26.393Z,1.13
2023-02-06T04:55:52.960Z,1.33
2023-02-06T04:58:19.579Z,1.23
2023-02-06T05:00:46.061Z,0.90
2023-02-06T05:03:12.612Z,1.30
2023-02-06T05:05:39.212Z,0.68
2023-02-06T05:08:05.851Z,0.68
2023-02-06T05:10:32.409Z,0.87
2023-02-06T05:12:59.013Z,0.63
2023-02-06T05:15:25.587Z,0.88
2023-02-06T05:17:52.148Z,0.70
2023-02-06T05:20:19.086Z,0.68
2023-02-06T05:22:45.672Z,0.97
2023-02-06T05:25:12.157Z,0.52
2023-02-06T05:27:38.819Z,0.50
2023-02-06T05:30:05.685Z,2.50
2023-02-06T05:32:32.299Z,0.70
2023-02-06T05:34:59.807Z,1.10
2023-02-06T05:37:26.545Z,0.65
2023-02-06T05:39:53.204Z,0.50
2023-02-06T05:42:19.805Z,0.98
2023-02-06T05:44:46.383Z,0.50
2023-02-06T05:47:12.975Z,0.63
2023-02-06T05:49:39.519Z,0.32
2023-02-06T05:52:06.347Z,1.05
2023-02-06T05:54:32.953Z,0.35
2023-02-06T05:56:59.621Z,0.32
2023-02-06T05:59:26.210Z,0.30
2023-02-06T06:01:52.772Z,0.82
2023-02-06T06:04:19.664Z,0.43
2023-02-06T06:06:46.335Z,0.90
2023-02-06T06:09:12.948Z,0.68
2023-02-06T06:11:39.546Z,0.70
2023-02-06T06:14:06.397Z,1.23
2023-02-06T06:16:33.319Z,0.70
2023-02-06T06:18:59.949Z,0.80
2023-02-06T06:21:26.554Z,0.80
2023-02-06T06:23:53.248Z,0.73
2023-02-06T06:26:19.998Z,0.68
2023-02-06T06:28:46.790Z,0.63
2023-02-06T06:31:13.652Z,0.80
2023-02-06T06:33:40.626Z,0.93
2023-02-06T06:36:09.295Z,1.57
2023-02-06T06:38:35.951Z,0.40
2023-02-06T06:41:03.021Z,0.70
2023-02-06T06:43:30.001Z,0.63
2023-02-06T06:45:57.027Z,0.40
2023-02-06T06:48:23.728Z,0.50
2023-02-06T06:50:50.408Z,0.80
2023-02-06T06:53:17.144Z,1.48
2023-02-06T06:55:43.807Z,1.00
2023-02-06T06:58:10.749Z,1.20
2023-02-06T07:04:37.707Z,0.55
2023-02-06T07:07:39.462Z,0.50
2023-02-06T07:10:07.721Z,0.52
2023-02-06T07:12:34.791Z,0.90
2023-02-06T07:15:01.566Z,0.60
2023-02-06T07:17:28.142Z,0.88
2023-02-06T07:19:54.717Z,1.00
2023-02-06T07:22:21.319Z,1.30
2023-02-06T07:24:48.284Z,1.30
2023-02-06T07:27:15.282Z,1.07
2023-02-06T07:29:43.097Z,1.15
2023-02-06T07:32:09.956Z,1.33
2023-02-06T07:34:36.682Z,0.98
2023-02-06T07:37:04.221Z,1.35
2023-02-06T07:39:31.099Z,1.10
2023-02-06T07:41:57.714Z,1.40
2023-02-06T07:44:24.258Z,0.85
2023-02-06T07:46:52.856Z,1.17
2023-02-06T07:49:19.431Z,0.85
2023-02-06T07:51:46.305Z,1.23
2023-02-06T07:54:13.245Z,0.98
2023-02-06T07:56:40.179Z,1.65
2023-02-06T07:59:07.675Z,1.40
2023-02-06T08:01:34.283Z,1.05
2023-02-06T08:04:00.911Z,1.20
2023-02-06T08:06:27.680Z,1.25
2023-02-06T08:08:56.086Z,1.48
2023-02-06T08:11:25.222Z,1.38
2023-02-06T08:13:51.788Z,1.10
2023-02-06T08:16:21.521Z,0.80
2023-02-06T08:18:48.170Z,1.42
2023-02-06T08:21:17.985Z,1.30
2023-02-06T08:23:44.891Z,1.42
2023-02-06T08:26:16.675Z,1.58
2023-02-06T08:28:47.370Z,1.10
2023-02-06T08:31:18.096Z,1.73
2023-02-06T08:33:45.470Z,0.80
2023-02-06T08:36:13.614Z,1.42
2023-02-06T08:38:40.623Z,1.42
2023-02-06T08:41:17.498Z,1.03
2023-02-06T08:43:46.798Z,1.10
2023-02-06T08:46:14.348Z,1.35
2023-02-06T08:48:41.025Z,1.63
2023-02-06T08:51:09.538Z,1.17
2023-02-06T08:53:36.855Z,1.27
2023-02-06T08:56:09.209Z,0.90
2023-02-06T08:58:38.815Z,0.85
2023-02-06T09:01:07.852Z,1.10
2023-02-06T09:03:34.980Z,1.25
2023-02-06T09:06:09.814Z,1.30
2023-02-06T09:08:38.547Z,0.70
2023-02-06T09:11:12.803Z,1.98
2023-02-06T09:13:40.637Z,1.63
2023-02-06T09:16:08.158Z,1.05
2023-02-06T09:18:35.465Z,0.93
2023-02-06T09:21:06.240Z,1.83
2023-02-06T09:23:33.121Z,1.08
2023-02-06T09:25:59.836Z,1.45
2023-02-06T09:28:26.496Z,1.08
2023-02-06T09:30:53.205Z,1.10
2023-02-06T09:33:20.030Z,1.95
2023-02-06T09:35:46.898Z,1.52
2023-02-06T09:38:13.533Z,1.25
2023-02-06T09:40:40.271Z,1.60
2023-02-06T09:43:06.984Z,1.30
2023-02-06T09:45:34.063Z,1.55
2023-02-06T09:48:14.421Z,2.25
2023-02-06T09:51:00.721Z,1.02
2023-02-06T09:53:55.108Z,1.17
2023-02-06T09:56:32.631Z,0.90
2023-02-06T09:59:05.947Z,1.35
2023-02-06T10:01:45.012Z,1.48
2023-02-06T10:05:35.568Z,1.33
2023-02-06T10:08:28.800Z,1.58
2023-02-06T10:11:01.190Z,1.20
2023-02-06T10:16:41.080Z,1.30
2023-02-06T10:19:15.845Z,1.42
2023-02-06T10:21:53.516Z,1.73
2023-02-06T10:24:32.283Z,1.50
2023-02-06T10:27:03.118Z,1.98
2023-02-06T10:29:32.665Z,1.40
2023-02-06T10:32:04.973Z,1.50
2023-02-06T10:34:47.204Z,1.77
2023-02-06T10:37:28.191Z,1.47
2023-02-06T10:40:15.921Z,1.58
2023-02-06T10:42:56.175Z,1.27
2023-02-06T10:45:36.642Z,1.55
2023-02-06T10:48:47.553Z,1.33
2023-02-06T10:55:19.615Z,2.40
2023-02-06T10:57:47.782Z,1.20
2023-02-06T11:00:24.009Z,1.45
2023-02-06T11:03:07.069Z,1.25
2023-02-06T11:05:34.499Z,1.30
2023-02-06T11:08:16.198Z,1.00
2023-02-06T11:10:44.285Z,0.85
2023-02-06T11:13:15.309Z,0.68
2023-02-06T11:16:09.382Z,0.90
2023-02-06T11:18:42.887Z,1.30
2023-02-06T11:21:12.848Z,0.95
2023-02-06T11:23:41.285Z,1.10
2023-02-06T11:26:15.747Z,1.52
2023-02-06T11:28:52.441Z,0.90
2023-02-06T11:31:21.326Z,1.60
2023-02-06T11:33:52.458Z,1.23
2023-02-06T11:36:27.078Z,0.90
2023-02-06T11:38:56.006Z,0.85
2023-02-06T11:41:22.549Z,1.38
2023-02-06T11:43:51.768Z,2.10
2023-02-06T11:46:24.363Z,1.77
2023-02-06T11:48:58.586Z,1.02
2023-02-06T11:51:26.331Z,1.00
2023-02-06T11:53:57.997Z,1.13
2023-02-06T11:56:25.153Z,0.50
2023-02-06T11:59:06.029Z,0.68
2023-02-06T12:01:42.855Z,1.60
2023-02-06T12:04:17.192Z,1.02
2023-02-06T12:06:43.922Z,0.40
2023-02-06T12:09:12.902Z,0.50
2023-02-06T12:11:52.580Z,0.50
2023-02-06T12:14:30.763Z,1.00
2023-02-06T12:16:58.827Z,1.25
2023-02-06T12:19:31.755Z,0.80
2023-02-06T12:22:04.096Z,0.50
2023-02-06T12:24:37.343Z,0.70
2023-02-06T12:27:15.507Z,0.85
2023-02-06T12:29:46.739Z,0.80
2023-02-06T12:32:18.684Z,0.50
2023-02-06T12:34:54.026Z,0.47
2023-02-06T12:37:31.804Z,0.35
2023-02-06T12:40:00.667Z,1.40
2023-02-06T12:42:36.318Z,0.90
2023-02-06T12:45:17.629Z,0.30
2023-02-06T12:47:49.243Z,0.80
2023-02-06T12:50:23.177Z,0.73
2023-02-06T12:52:56.041Z,0.40
2023-02-06T12:55:27.540Z,0.80
2023-02-06T12:57:55.257Z,0.32
2023-02-06T13:00:29.314Z,0.73
2023-02-06T13:03:13.298Z,0.52
2023-02-06T13:05:44.077Z,1.00
2023-02-06T13:08:16.596Z,0.50
2023-02-06T13:10:43.643Z,0.73
2023-02-06T13:13:28.582Z,0.40
2023-02-06T13:15:57.884Z,1.08
2023-02-06T13:18:52.647Z,0.85
2023-02-06T13:21:29.868Z,0.80
2023-02-06T13:24:02.602Z,0.80
2023-02-06T13:26:51.648Z,0.80
2023-02-06T13:29:29.319Z,0.70
2023-02-06T13:32:29.489Z,0.60
2023-02-06T13:35:07.326Z,0.40
2023-02-06T13:37:39.821Z,1.15
2023-02-06T13:40:23.080Z,1.50
2023-02-06T13:43:03.530Z,1.05
2023-02-06T13:45:52.587Z,0.57
2023-02-06T13:48:33.347Z,1.13
2023-02-06T13:51:05.064Z,0.75
2023-02-06T13:53:35.618Z,0.80
2023-02-06T13:56:19.809Z,1.10
2023-02-06T13:58:51.482Z,0.30
2023-02-06T14:01:23.104Z,0.50
2023-02-06T14:03:51.603Z,0.50
2023-02-06T14:06:48.643Z,0.40
2023-02-06T14:09:51.709Z,0.95
2023-02-06T14:12:34.791Z,1.40
2023-02-06T14:15:20.087Z,0.98
2023-02-06T14:18:05.612Z,0.73
2023-02-06T14:20:54.530Z,1.10
2023-02-06T14:23:41.109Z,0.63
2023-02-06T14:26:23.594Z,1.30
2023-02-06T14:28:57.036Z,0.50
2023-02-06T14:31:55.707Z,4.88
2023-02-06T14:34:32.757Z,0.60
2023-02-06T14:38:23.477Z,1.10
2023-02-06T14:41:28.889Z,0.47
2023-02-06T14:43:55.998Z,1.00
2023-02-06T14:46:22.803Z,0.40
2023-02-06T14:48:57.149Z,0.53
2023-02-06T14:51:28.707Z,0.40
2023-02-06T14:54:01.706Z,0.47
2023-02-06T14:56:31.623Z,0.38
2023-02-06T14:59:16.319Z,0.52
2023-02-06T15:01:47.768Z,0.43
2023-02-06T15:04:17.972Z,0.75
2023-02-06T15:07:23.950Z,0.50
2023-02-06T15:09:59.487Z,0.50
2023-02-06T15:12:29.018Z,0.65
2023-02-06T15:15:02.898Z,0.87
2023-02-06T15:17:31.824Z,0.50
2023-02-06T15:20:15.872Z,0.50
2023-02-06T15:22:42.477Z,3.30
2023-02-06T15:25:36.337Z,0.85
2023-02-06T15:28:05.873Z,0.40
2023-02-06T15:30:35.188Z,0.40
2023-02-06T15:33:02.288Z,0.73
2023-02-06T15:35:36.681Z,0.98
2023-02-06T15:38:06.651Z,0.80
2023-02-06T15:40:39.061Z,0.93
2023-02-06T15:43:06.267Z,2.45
2023-02-06T15:45:39.120Z,1.25
2023-02-06T15:48:20.121Z,1.50
2023-02-06T15:51:03.432Z,2.50
2023-02-06T15:53:34.626Z,1.53
2023-02-06T15:56:04.001Z,0.82
2023-02-06T16:02:47.750Z,0.30
2023-02-06T16:05:45.002Z,0.20
2023-02-06T16:10:54.714Z,0.80
2023-02-06T16:13:50.515Z,0.52
2023-02-06T16:16:17.188Z,0.98
2023-02-06T16:18:43.896Z,0.73
2023-02-06T16:21:16.384Z,0.63
2023-02-06T16:24:05.239Z,0.50
2023-02-06T16:26:44.018Z,0.50
2023-02-06T16:29:10.538Z,0.32
2023-02-06T16:31:40.789Z,0.63
2023-02-06T16:34:33.906Z,0.80
2023-02-06T16:37:00.523Z,0.73
2023-02-06T16:39:28.268Z,0.90
2023-02-06T16:41:54.969Z,0.98
2023-02-06T16:44:21.753Z,1.23
2023-02-06T16:46:48.375Z,0.80
2023-02-06T16:49:22.168Z,1.55
2023-02-06T16:51:52.266Z,1.65
2023-02-06T16:54:24.848Z,1.50
2023-02-06T16:56:52.714Z,1.20
2023-02-06T16:59:19.666Z,1.50
2023-02-06T17:01:46.326Z,1.35
2023-02-06T17:04:12.853Z,1.13
2023-02-06T17:06:39.791Z,1.52
2023-02-06T17:09:10.879Z,0.95
2023-02-06T17:11:38.571Z,1.13
2023-02-06T17:14:06.368Z,0.80
2023-02-06T17:16:33.750Z,1.00
2023-02-06T17:19:00.698Z,0.70
2023-02-06T17:21:29.779Z,1.00
2023-02-06T17:23:56.388Z,0.83
2023-02-06T17:26:23.908Z,1.02
2023-02-06T17:28:51.153Z,0.73
2023-02-06T17:31:18.539Z,0.70
2023-02-06T17:33:45.542Z,0.80
2023-02-06T17:36:17.320Z,1.30
2023-02-06T17:38:44.288Z,0.90
2023-02-06T17:41:10.933Z,0.90
2023-02-06T17:43:37.676Z,1.08
2023-02-06T17:46:05.840Z,0.85
2023-02-06T17:48:36.904Z,0.60
2023-02-06T17:51:05.369Z,0.80
2023-02-06T17:53:31.970Z,1.23
2023-02-06T17:56:05.629Z,0.75
2023-02-06T17:58:32.392Z,1.25
2023-02-06T18:00:59.102Z,0.80
2023-02-06T18:03:25.745Z,0.75
2023-02-06T18:05:58.903Z,1.20
2023-02-06T18:08:25.941Z,1.42
2023-02-06T18:10:52.600Z,1.10
2023-02-06T18:13:21.155Z,0.93
2023-02-06T18:15:50.875Z,1.10
2023-02-06T18:18:17.465Z,1.33
2023-02-06T18:20:44.271Z,0.95
2023-02-06T18:23:11.470Z,1.35
2023-02-06T18:25:43.173Z,1.27
2023-02-06T18:28:14.893Z,0.93
2023-02-06T18:30:42.208Z,1.10
2023-02-06T18:33:11.270Z,1.38
2023-02-06T18:35:39.569Z,1.20
2023-02-06T18:38:09.728Z,3.40
2023-02-06T18:40:38.542Z,2.90
2023-02-06T18:43:06.953Z,2.72
2023-02-06T18:45:37.305Z,2.38
2023-02-06T18:48:05.877Z,2.13
2023-02-06T18:50:33.012Z,3.60
2023-02-06T18:52:59.842Z,2.78
2023-02-06T18:55:26.787Z,2.40
2023-02-06T18:57:53.525Z,3.30
2023-02-06T19:00:22.682Z,4.20
2023-02-06T19:02:49.688Z,5.27
2023-02-06T19:05:17.286Z,5.25
2023-02-06T19:07:48.381Z,6.28
2023-02-06T19:10:16.281Z,5.70
2023-02-06T19:12:43.368Z,6.55
2023-02-06T19:15:30.990Z,8.37
2023-02-06T19:17:57.618Z,7.57
2023-02-06T19:20:24.286Z,6.45
2023-02-06T19:22:52.485Z,10.63
2023-02-06T19:25:19.505Z,10.30
2023-02-06T19:27:46.164Z,11.57
2023-02-06T19:30:13.517Z,10.70
2023-02-06T19:32:40.434Z,12.70
2023-02-06T19:35:07.286Z,14.55
2023-02-06T19:37:33.897Z,14.93
2023-02-06T19:40:00.544Z,14.17
2023-02-06T19:42:27.320Z,14.43
2023-02-06T19:44:54.925Z,12.77
2023-02-06T19:47:22.298Z,13.02
2023-02-06T19:49:52.809Z,13.63
2023-02-06T19:52:19.715Z,13.40
2023-02-06T19:54:47.896Z,14.30
2023-02-06T19:57:16.034Z,12.85
2023-02-06T19:59:42.796Z,14.40
2023-02-06T20:02:12.915Z,12.68
2023-02-06T20:04:39.921Z,12.90
2023-02-06T20:07:06.595Z,12.02
2023-02-06T20:09:33.408Z,12.85
2023-02-06T20:12:00.316Z,11.68
2023-02-06T20:14:27.960Z,12.55
2023-02-06T20:16:54.901Z,12.07
2023-02-06T20:19:25.630Z,11.85
2023-02-06T20:21:58.500Z,11.80
2023-02-06T20:24:28.189Z,11.05
2023-02-06T20:26:57.473Z,10.32
2023-02-06T20:29:28.219Z,10.63
2023-02-06T20:31:56.057Z,9.98
2023-02-06T20:34:23.711Z,9.57
2023-02-06T20:36:52.776Z,9.48
2023-02-06T20:39:20.013Z,7.15
2023-02-06T20:41:49.453Z,7.33
2023-02-06T20:44:16.958Z,8.80
2023-02-06T20:46:43.673Z,6.25
2023-02-06T20:49:16.601Z,6.47
2023-02-06T20:51:43.468Z,5.45
2023-02-06T20:54:11.704Z,5.50
2023-02-06T20:56:39.770Z,6.18
2023-02-06T20:59:06.970Z,5.55
2023-02-06T21:01:34.049Z,6.05
2023-02-06T21:04:04.651Z,4.88
2023-02-06T21:06:33.262Z,4.53
2023-02-06T21:09:01.073Z,4.38
2023-02-06T21:11:30.375Z,5.70
2023-02-06T21:13:58.771Z,5.03
2023-02-06T21:16:26.732Z,5.25
2023-02-06T21:18:54.295Z,5.03
2023-02-06T21:21:21.503Z,4.53
2023-02-06T21:23:48.791Z,4.90
2023-02-06T21:26:17.930Z,4.90
2023-02-06T21:28:46.336Z,4.30
2023-02-06T21:31:16.196Z,5.27
2023-02-06T21:33:45.298Z,4.80
2023-02-06T21:36:11.962Z,4.43
2023-02-06T21:38:39.408Z,4.70
2023-02-06T21:41:08.821Z,4.38
2023-02-06T21:43:35.538Z,6.40
2023-02-06T21:46:03.384Z,7.18
2023-02-06T21:48:30.527Z,5.78
2023-02-06T21:50:57.258Z,4.13
2023-02-06T21:53:24.107Z,5.00
2023-02-06T21:55:50.764Z,5.37
2023-02-06T21:58:17.420Z,5.00
2023-02-06T22:00:45.782Z,4.57
2023-02-06T22:03:13.373Z,3.92
2023-02-06T22:05:41.434Z,3.85
2023-02-06T22:08:08.062Z,4.13
2023-02-06T22:10:37.363Z,4.15
2023-02-06T22:13:06.686Z,4.07
2023-02-06T22:15:34.130Z,4.38
2023-02-06T22:18:01.112Z,3.70
2023-02-06T22:20:29.862Z,3.60
2023-02-06T22:22:56.405Z,3.72
2023-02-06T22:25:24.187Z,3.38
2023-02-06T22:27:50.756Z,3.65
2023-02-06T22:30:17.669Z,3.80
2023-02-06T22:32:44.190Z,3.67
2023-02-06T22:35:10.729Z,3.45
2023-02-06T22:37:37.334Z,4.30
2023-02-06T22:40:04.319Z,3.38
2023-02-06T22:42:30.978Z,4.35
2023-02-06T22:44:57.584Z,3.83
2023-02-06T22:47:24.101Z,4.13
2023-02-06T22:49:52.717Z,3.78
2023-02-06T22:52:37.749Z,3.75
2023-02-06T22:55:05.921Z,3.00
2023-02-06T22:57:35.226Z,3.90
2023-02-06T23:00:02.107Z,3.92
2023-02-06T23:02:28.646Z,4.03
2023-02-06T23:04:55.253Z,3.47
2023-02-06T23:07:21.822Z,3.92
2023-02-06T23:09:48.430Z,3.67
2023-02-06T23:12:16.226Z,4.05
2023-02-06T23:14:42.965Z,3.80
2023-02-06T23:17:10.794Z,3.80
2023-02-06T23:19:38.889Z,4.20
2023-02-06T23:22:05.664Z,4.17
2023-02-06T23:24:32.307Z,4.35
2023-02-06T23:26:58.801Z,4.05
2023-02-06T23:29:25.318Z,4.30
2023-02-06T23:31:51.924Z,4.45
2023-02-06T23:34:20.329Z,4.50
2023-02-06T23:36:47.360Z,4.18
2023-02-06T23:39:14.173Z,4.30
2023-02-06T23:41:40.794Z,4.97
2023-02-06T23:44:08.990Z,5.32
2023-02-06T23:46:37.891Z,4.27
2023-02-06T23:49:06.403Z,4.32
2023-02-06T23:51:33.673Z,5.35
2023-02-06T23:54:00.271Z,5.43
2023-02-06T23:56:29.127Z,5.30
2023-02-06T23:58:57.501Z,4.83
